Data for 10/04/2008

Time Sea-Level Adjusted Pressure Absolute Pressure Temperature Relative Humidity Dew Point   
(mb) (inHg) (mb) (inHg) (C) (F) (%) (C) (F)
00:05 1009 29.8 838 24.75 14.8 58.7 40 1.4 34.5
00:10 1008 29.77 838 24.75 14.8 58.7 41 1.7 35
00:15 1009 29.8 838 24.75 14.3 57.8 39 0.7 33.2
00:20 1008 29.77 838 24.75 14.8 58.6 40 1.4 34.6
00:25 1008 29.77 838 24.75 14.7 58.4 38 0.5 33
00:30 1008 29.77 838 24.75 14.3 57.8 40 1.1 34
00:35 1008 29.77 837 24.72 14.2 57.6 40 0.8 33.5
00:40 1008 29.77 837 24.72 14 57.1 42 1.3 34.4
00:45 1008 29.77 837 24.72 13.9 57 41 0.8 33.4
00:50 1008 29.77 837 24.72 13.9 57 41 1 33.7
00:55 1008 29.77 837 24.72 13.7 56.6 44 1.8 35.2
01:00 1008 29.77 837 24.72 13.2 55.7 43 1.1 34
01:05 1008 29.77 837 24.72 12.9 55.2 45 1.4 34.5
01:10 1008 29.77 837 24.72 12.9 55.2 44 1.1 34
01:15 1008 29.77 837 24.72 12.5 54.5 49 2.1 35.8
01:20 1008 29.77 837 24.72 12.5 54.4 44 0.5 33
01:25 1008 29.77 837 24.72 12.5 54.5 49 2.3 36.1
01:30 1008 29.77 837 24.72 12.7 54.8 44 1 33.7
01:35 1008 29.77 837 24.72 12.8 55.1 48 2 35.6
01:40 1008 29.77 837 24.72 13 55.4 40 -0 31.9
01:45 1008 29.77 837 24.72 14.1 57.3 41 1.1 33.9
01:50 1007 29.74 837 24.72 13.7 56.6 43 1.4 34.6
01:55 1007 29.74 837 24.72 12.8 55.1 48 2.2 36
02:00 1007 29.74 837 24.72 11.9 53.5 48 1.3 34.3
02:05 1007 29.74 837 24.72 12.4 54.3 46 1.1 34.1
02:10 1007 29.74 837 24.72 12.6 54.7 45 1.1 34
02:15 1007 29.74 836 24.69 12.8 55 47 1.8 35.2
02:20 1007 29.74 836 24.69 12.4 54.3 47 1.4 34.6
02:25 1007 29.74 836 24.69 12.6 54.7 45 1.1 34
02:30 1007 29.74 836 24.69 12.7 54.8 47 1.7 35.1
02:35 1007 29.74 836 24.69 12.4 54.3 46 1.3 34.3
02:40 1007 29.74 836 24.69 12.9 55.1 46 1.5 34.6
02:45 1007 29.74 836 24.69 12.7 54.8 46 1.6 34.8
02:50 1007 29.74 836 24.69 13.1 55.5 44 1.2 34.2
02:55 1007 29.74 836 24.69 13.5 56.2 42 1 33.7
03:00 1007 29.74 836 24.69 14 57.3 41 1.1 34
03:05 1007 29.74 836 24.69 14.2 57.6 41 1.1 34
03:10 1007 29.74 836 24.69 14.1 57.4 42 1.6 34.9
03:15 1007 29.74 836 24.69 13.8 56.8 43 1.6 34.8
03:20 1007 29.74 836 24.69 13.8 56.8 44 1.8 35.3
03:25 1007 29.74 836 24.69 13.7 56.7 44 1.8 35.3
03:30 1006 29.71 836 24.69 13.9 57 44 1.9 35.4
03:35 1006 29.71 836 24.69 13.9 57 45 2.1 35.7
03:40 1006 29.71 836 24.69 14 57.1 44 2 35.7
03:45 1006 29.71 835 24.66 14 57.3 44 2 35.7
03:50 1006 29.71 835 24.66 14.1 57.3 44 2 35.7
03:55 1006 29.71 835 24.66 14 57.2 44 2.1 35.7
04:00 1006 29.71 835 24.66 14.1 57.3 44 2 35.7
04:05 1006 29.71 835 24.66 14.1 57.4 44 2.2 35.9
04:10 1006 29.71 835 24.66 14 57.3 45 2.2 36
04:15 1006 29.71 835 24.66 13.9 57 46 2.5 36.6
04:20 1006 29.71 835 24.66 13.8 56.9 46 2.4 36.3
04:25 1006 29.71 835 24.66 14.1 57.3 45 2.3 36.1
04:30 1006 29.71 835 24.66 14 57.3 46 2.7 36.9
04:35 1006 29.71 835 24.66 13.8 56.8 46 2.4 36.3
04:40 1006 29.71 835 24.66 13.8 56.8 46 2.5 36.6
04:45 1006 29.71 835 24.66 13.6 56.5 48 2.8 37
04:50 1006 29.71 835 24.66 14.1 57.4 45 2.3 36.2
04:55 1006 29.71 835 24.66 14.1 57.4 46 2.8 37.1
05:00 1006 29.71 835 24.66 14 57.2 45 2.3 36.1
05:05 1006 29.71 835 24.66 14.3 57.7 44 2.2 36
05:10 1006 29.71 835 24.66 14.4 57.9 44 2.3 36.2
05:15 1006 29.71 835 24.66 13.9 57 48 3.2 37.8
05:20 1006 29.71 835 24.66 13.3 55.9 48 2.6 36.6
05:25 1006 29.71 835 24.66 13.1 55.7 49 2.9 37.2
05:30 1006 29.71 835 24.66 12.9 55.3 50 3 37.3
05:35 1006 29.71 835 24.66 12.8 55.1 51 3 37.4
05:40 1005 29.68 835 24.66 12.8 55 54 3.8 38.9
05:45 1006 29.71 835 24.66 12.4 54.3 51 2.6 36.8
05:50 1006 29.71 835 24.66 13.1 55.5 48 2.4 36.2
05:55 1006 29.71 835 24.66 13.5 56.2 46 2 35.6
06:00 1005 29.68 835 24.66 14 57.2 42 1.2 34.2
06:05 1005 29.68 835 24.66 14.1 57.3 43 1.7 35.1
06:10 1005 29.68 835 24.66 14.1 57.3 45 2.4 36.3
06:15 1005 29.68 835 24.66 13.7 56.6 49 3.1 37.6
06:20 1005 29.68 835 24.66 13.7 56.6 42 1.1 33.9
06:25 1005 29.68 835 24.66 14.6 58.3 43 2.2 35.9
06:30 1005 29.68 835 24.66 14.7 58.4 45 2.9 37.2
06:35 1005 29.68 835 24.66 14.2 57.6 50 4.1 39.3
06:40 1005 29.68 835 24.66 13.5 56.3 46 2.3 36.1
06:45 1005 29.68 835 24.66 13.8 56.9 47 2.7 36.8
06:50 1005 29.68 834 24.63 13.9 56.9 50 3.7 38.6
06:55 1005 29.68 834 24.63 13.5 56.4 52 3.9 39.1
07:00 1005 29.68 834 24.63 13.5 56.2 52 3.9 39.1
07:05 1005 29.68 834 24.63 13.2 55.8 53 3.9 39.1
07:10 1005 29.68 834 24.63 13 55.3 55 4.1 39.4
07:15 1005 29.68 834 24.63 12.9 55.3 54 3.9 39
07:20 1005 29.68 834 24.63 13.1 55.6 53 3.9 39
07:25 1005 29.68 834 24.63 13.2 55.8 53 3.9 39.1
07:30 1005 29.68 834 24.63 13.4 56.1 53 4 39.1
07:35 1005 29.68 834 24.63 13.5 56.3 52 4 39.2
07:40 1005 29.68 834 24.63 13.5 56.3 53 4.1 39.3
07:45 1005 29.68 834 24.63 13.7 56.6 52 4.2 39.5
07:50 1005 29.68 834 24.63 13.8 56.9 52 4.2 39.6
07:55 1005 29.68 834 24.63 13.9 57.1 53 4.4 40
08:00 1005 29.68 834 24.63 13.9 56.9 52 4.3 39.7
08:05 1005 29.68 834 24.63 14 57.3 52 4.3 39.7
08:10 1005 29.68 834 24.63 14 57.3 52 4.5 40.1
08:15 1005 29.68 834 24.63 13.9 57.1 53 4.5 40.2
08:20 1005 29.68 834 24.63 14 57.1 52 4.4 39.8
08:25 1005 29.68 834 24.63 14.1 57.3 52 4.4 40
08:30 1005 29.68 834 24.63 14.1 57.4 52 4.6 40.3
08:35 1005 29.68 834 24.63 14 57.2 53 4.6 40.3
08:40 1005 29.68 834 24.63 14 57.1 53 4.5 40.2
08:45 1005 29.68 834 24.63 13.9 57 53 4.7 40.4
08:50 1005 29.68 834 24.63 13.9 57 54 4.8 40.7
08:55 1005 29.68 834 24.63 13.9 57.1 54 5 40.9
09:00 1005 29.68 834 24.63 14.1 57.3 52 4.6 40.2
09:05 1005 29.68 834 24.63 14.2 57.5 53 4.8 40.6
09:10 1005 29.68 834 24.63 14.4 58 51 4.4 39.9
09:15 1005 29.68 834 24.63 14.5 58.1 52 4.9 40.8
09:20 1005 29.68 834 24.63 14.7 58.4 51 4.6 40.3
09:25 1005 29.68 834 24.63 14.7 58.5 51 4.8 40.7
09:30 1005 29.68 834 24.63 14.9 58.8 52 5.1 41.2
09:35 1005 29.68 834 24.63 14.9 58.9 53 5.5 42
09:40 1005 29.68 834 24.63 14.8 58.6 53 5.3 41.5
09:45 1005 29.68 834 24.63 14.7 58.5 54 5.7 42.3
09:50 1005 29.68 835 24.66 14.6 58.3 55 5.8 42.4
09:55 1005 29.68 835 24.66 14.1 57.3 56 5.4 41.7
10:00 1005 29.68 835 24.66 13.2 55.8 57 4.9 40.9
10:05 1005 29.68 835 24.66 13.2 55.7 56 4.8 40.6
10:10 1006 29.71 835 24.66 12.9 55.3 57 4.6 40.3
10:15 1006 29.71 835 24.66 12.8 55.1 57 4.5 40.1
10:20 1006 29.71 835 24.66 12.8 55.1 56 4.4 39.9
10:25 1006 29.71 835 24.66 13 55.4 56 4.4 39.9
10:30 1006 29.71 835 24.66 13.4 56.1 54 4.4 40
10:35 1006 29.71 835 24.66 13.8 56.8 53 4.4 39.9
10:40 1006 29.71 835 24.66 14 57.1 53 4.6 40.3
10:45 1006 29.71 835 24.66 14.1 57.3 53 4.8 40.7
10:50 1006 29.71 835 24.66 14.2 57.6 53 4.8 40.6
10:55 1006 29.71 835 24.66 14.3 57.7 52 4.7 40.4
11:00 1006 29.71 835 24.66 14.3 57.8 52 4.7 40.5
11:05 1006 29.71 835 24.66 14.4 57.9 53 4.9 40.8
11:10 1006 29.71 835 24.66 14.1 57.4 54 4.9 40.9
11:15 1006 29.71 835 24.66 14 57.3 53 4.8 40.6
11:20 1006 29.71 835 24.66 13.9 57.1 55 5.1 41.3
11:25 1006 29.71 835 24.66 13.7 56.7 56 5.3 41.5
11:30 1006 29.71 835 24.66 13.7 56.7 56 5.2 41.3
11:35 1006 29.71 835 24.66 13.8 56.9 56 5.3 41.5
11:40 1006 29.71 835 24.66 14 57.3 56 5.5 41.9
11:45 1006 29.71 835 24.66 14.2 57.6 55 5.4 41.6
11:50 1005 29.68 835 24.66 14.7 58.5 53 5.4 41.7
11:55 1005 29.68 835 24.66 15 58.9 52 5.2 41.3
12:00 1005 29.68 835 24.66 15.1 59.2 51 5.1 41.1
12:05 1005 29.68 835 24.66 15.4 59.8 49 4.8 40.6
12:10 1006 29.71 835 24.66 15.9 60.6 47 4.6 40.3
12:15 1006 29.71 835 24.66 16.4 61.5 43 4 39.3
12:20 1006 29.71 835 24.66 16.7 62.1 44 4.4 40
12:25 1006 29.71 835 24.66 16.9 62.4 44 4.6 40.2
12:30 1005 29.68 835 24.66 16.6 61.8 44 4.5 40
12:35 1005 29.68 835 24.66 17.1 62.8 42 4.1 39.3
12:40 1005 29.68 835 24.66 16.8 62.2 43 4.4 39.9
12:45 1005 29.68 834 24.63 17.1 62.7 41 4 39.1
12:50 1005 29.68 834 24.63 16.6 61.8 44 4.2 39.6
12:55 1005 29.68 834 24.63 16.1 61 44 4 39.1
13:00 1005 29.68 834 24.63 16.3 61.3 43 3.8 38.9
13:05 1005 29.68 834 24.63 16.7 62.1 43 4.1 39.4
13:10 1005 29.68 834 24.63 17 62.5 41 3.8 38.8
13:15 1005 29.68 834 24.63 17.1 62.7 42 4.1 39.4
13:20 1005 29.68 834 24.63 17.1 62.8 41 3.7 38.7
13:25 1005 29.68 834 24.63 17.5 63.5 39 3.5 38.3
13:30 1005 29.68 834 24.63 17.4 63.3 40 3.8 38.8
13:35 1005 29.68 834 24.63 17.8 64 40 4 39.2
13:40 1005 29.68 834 24.63 17.1 62.7 41 3.9 39.1
13:45 1005 29.68 834 24.63 17.1 62.8 41 3.9 39.1
13:50 1005 29.68 834 24.63 17.3 63.1 41 3.9 39
13:55 1005 29.68 834 24.63 17.1 62.8 40 3.6 38.4
14:00 1005 29.68 834 24.63 17.2 63 40 3.6 38.5
14:05 1005 29.68 834 24.63 17.2 62.9 40 3.6 38.4
14:10 1005 29.68 834 24.63 16.9 62.4 41 3.7 38.6
14:15 1005 29.68 834 24.63 16.6 61.9 41 3.5 38.3
14:20 1005 29.68 834 24.63 16.8 62.3 41 3.5 38.4
14:25 1005 29.68 834 24.63 17.3 63.2 39 3.5 38.3
14:30 1005 29.68 834 24.63 17.4 63.3 40 3.8 38.9
14:35 1005 29.68 834 24.63 17.4 63.3 39 3.6 38.4
14:40 1005 29.68 834 24.63 17.2 62.9 42 4.4 40
14:45 1005 29.68 834 24.63 16.7 62 43 4.2 39.6
14:50 1005 29.68 834 24.63 16.6 61.8 44 4.3 39.8
14:55 1005 29.68 834 24.63 16.6 62 44 4.3 39.8
15:00 1005 29.68 834 24.63 16.7 62.1 44 4.6 40.3
15:05 1005 29.68 834 24.63 16.8 62.3 43 4.2 39.6
15:10 1005 29.68 834 24.63 16.7 62.1 43 4.1 39.4
15:15 1005 29.68 834 24.63 16.5 61.8 44 4.3 39.7
15:20 1005 29.68 834 24.63 16.3 61.4 44 4.3 39.7
15:25 1005 29.68 834 24.63 16.4 61.4 43 3.8 38.9
15:30 1005 29.68 834 24.63 16.4 61.5 43 4.1 39.3
15:35 1005 29.68 834 24.63 16.5 61.6 43 4 39.2
15:40 1005 29.68 834 24.63 16.6 61.9 41 3.4 38.1
15:45 1005 29.68 834 24.63 16.3 61.3 42 3.5 38.2
15:50 1005 29.68 834 24.63 16.4 61.5 41 3.1 37.6
15:55 1005 29.68 834 24.63 16.4 61.5 42 3.6 38.5
16:00 1005 29.68 834 24.63 16.3 61.4 42 3.4 38.2
16:05 1005 29.68 834 24.63 16.2 61.1 42 3.5 38.2
16:10 1005 29.68 834 24.63 16.1 61 43 3.7 38.7
16:15 1005 29.68 834 24.63 15.9 60.7 43 3.3 38
16:20 1005 29.68 834 24.63 15.9 60.5 43 3.5 38.2
16:25 1005 29.68 834 24.63 15.9 60.6 43 3.5 38.2
16:30 1005 29.68 834 24.63 15.8 60.5 44 3.7 38.6
16:35 1005 29.68 834 24.63 15.8 60.4 44 3.6 38.5
16:40 1005 29.68 835 24.66 15.8 60.4 45 3.8 38.9
16:45 1005 29.68 835 24.66 15.8 60.5 44 3.8 38.8
16:50 1005 29.68 835 24.66 16 60.8 45 4.2 39.5
16:55 1005 29.68 835 24.66 16 60.7 45 4.1 39.3
17:00 1005 29.68 835 24.66 16.2 61.2 44 4 39.2
17:05 1006 29.71 835 24.66 16.4 61.4 44 4.2 39.5
17:10 1006 29.71 835 24.66 16.2 61.1 44 4.1 39.5
17:15 1006 29.71 835 24.66 16 60.8 46 4.5 40.1
17:20 1006 29.71 835 24.66 15.8 60.5 46 4.5 40
17:25 1006 29.71 835 24.66 15.6 60 48 4.6 40.2
17:30 1006 29.71 835 24.66 15.4 59.7 49 4.9 40.8
17:35 1006 29.71 835 24.66 15.2 59.3 53 5.7 42.3
17:40 1006 29.71 835 24.66 14.5 58 56 5.8 42.4
17:45 1006 29.71 835 24.66 14.1 57.3 58 5.9 42.6
17:50 1006 29.71 835 24.66 13.8 56.8 58 5.7 42.2
17:55 1006 29.71 835 24.66 13.6 56.4 60 6.1 43
18:00 1006 29.71 835 24.66 13.1 55.6 65 6.8 44.2
18:05 1006 29.71 835 24.66 12.6 54.7 67 6.8 44.2
18:10 1006 29.71 835 24.66 12.4 54.4 68 6.7 44.1
18:15 1006 29.71 835 24.66 12.4 54.4 68 6.8 44.2
18:20 1006 29.71 836 24.69 12.6 54.6 64 6 42.8
18:25 1006 29.71 836 24.69 12.6 54.6 68 6.8 44.2
18:30 1006 29.71 836 24.69 12.7 54.9 64 6.2 43.1
18:35 1006 29.71 836 24.69 12.8 55 65 6.5 43.7
18:40 1006 29.71 836 24.69 13 55.4 57 4.8 40.7
18:45 1006 29.71 836 24.69 13.2 55.7 60 5.7 42.2
18:50 1007 29.74 836 24.69 13.1 55.6 64 6.4 43.5
18:55 1007 29.74 836 24.69 12.6 54.6 66 6.4 43.6
19:00 1007 29.74 836 24.69 12.4 54.3 66 6.3 43.3
19:05 1007 29.74 836 24.69 12.4 54.3 66 6.4 43.4
19:10 1007 29.74 836 24.69 12.4 54.3 68 6.6 43.9
19:15 1007 29.74 836 24.69 12.3 54.1 70 7 44.5
19:20 1007 29.74 836 24.69 11.7 53 75 7.4 45.4
19:25 1007 29.74 836 24.69 11.2 52.2 76 7.1 44.8
19:30 1007 29.74 836 24.69 11.2 52.1 76 7 44.7
19:35 1007 29.74 836 24.69 11 51.8 77 7.2 45
19:40 1007 29.74 836 24.69 11 51.7 77 7 44.7
19:45 1007 29.74 836 24.69 11 51.8 76 7 44.6
19:50 1007 29.74 836 24.69 11 51.8 76 6.9 44.5
19:55 1007 29.74 836 24.69 11.1 51.9 75 6.8 44.3
20:00 1007 29.74 836 24.69 11.2 52.1 73 6.6 43.9
20:05 1007 29.74 836 24.69 11.3 52.3 72 6.5 43.8
20:10 1007 29.74 836 24.69 11.3 52.3 73 6.5 43.8
20:15 1007 29.74 836 24.69 11.3 52.3 73 6.7 44
20:20 1007 29.74 836 24.69 11.3 52.3 75 7.1 44.8
20:25 1007 29.74 836 24.69 11.1 52 72 6.3 43.3
20:30 1007 29.74 836 24.69 11.3 52.3 72 6.4 43.6
20:35 1007 29.74 836 24.69 11.3 52.3 72 6.5 43.7
20:40 1007 29.74 836 24.69 11.3 52.4 72 6.4 43.6
20:45 1007 29.74 836 24.69 11.4 52.5 72 6.6 43.9
20:50 1007 29.74 836 24.69 11.4 52.5 72 6.6 43.9
20:55 1007 29.74 837 24.72 11.3 52.4 73 6.7 44
21:00 1007 29.74 837 24.72 11.3 52.3 72 6.5 43.7
21:05 1007 29.74 837 24.72 11.3 52.3 72 6.4 43.5
21:10 1007 29.74 837 24.72 11.2 52.2 74 6.8 44.2
21:15 1007 29.74 837 24.72 11.1 52 74 6.7 44.1
21:20 1007 29.74 836 24.69 10.9 51.6 76 6.9 44.5
21:25 1007 29.74 837 24.72 10.7 51.3 77 6.8 44.2
21:30 1007 29.74 837 24.72 10.6 51.2 77 6.8 44.2
21:35 1007 29.74 837 24.72 10.6 51 75 6.4 43.5
21:40 1007 29.74 837 24.72 10.6 51 76 6.5 43.7
21:45 1007 29.74 837 24.72 10.5 50.8 78 6.8 44.3
21:50 1008 29.77 837 24.72 10.2 50.3 77 6.4 43.5
21:55 1008 29.77 837 24.72 10.1 50.2 77 6.2 43.2
22:00 1008 29.77 837 24.72 10.1 50.1 77 6.2 43.2
22:05 1007 29.74 837 24.72 10 50 77 6.2 43.2
22:10 1007 29.74 837 24.72 10 49.9 78 6.3 43.4
22:15 1007 29.74 837 24.72 10 50 78 6.4 43.4
22:20 1007 29.74 837 24.72 10 50 77 6.3 43.3
22:25 1007 29.74 837 24.72 9.7 49.4 79 6.3 43.4
22:30 1007 29.74 837 24.72 9.4 48.8 81 6.3 43.4
22:35 1007 29.74 837 24.72 9.1 48.4 82 6.3 43.3
22:40 1007 29.74 837 24.72 9.3 48.7 76 5.2 41.4
22:45 1007 29.74 837 24.72 9.7 49.4 77 5.8 42.4
22:50 1007 29.74 837 24.72 9.5 49.1 77 5.7 42.3
22:55 1007 29.74 837 24.72 9.5 49 76 5.5 42
23:00 1007 29.74 837 24.72 9.4 49 76 5.5 41.9
23:05 1007 29.74 837 24.72 9.5 49.1 74 5.1 41.2
23:10 1007 29.74 837 24.72 9.6 49.4 73 5.1 41.2
23:15 1008 29.77 837 24.72 9.6 49.3 73 5 41
23:20 1008 29.77 837 24.72 9.6 49.4 73 5 41
23:25 1008 29.77 837 24.72 9.7 49.4 74 5.3 41.5
23:30 1008 29.77 837 24.72 9.5 49.1 76 5.5 41.8
23:35 1008 29.77 837 24.72 9.3 48.7 75 5 41
23:40 1008 29.77 837 24.72 9.2 48.5 75 5 41.1
23:45 1008 29.77 837 24.72 9.1 48.4 75 5 41
23:50 1008 29.77 837 24.72 9.1 48.3 77 5.2 41.4
23:55 1008 29.77 837 24.72 8.8 47.9 77 5.1 41.1
24:00 1008 29.77 837 24.72 8.7 47.7 78 5.1 41.2